AirNav   Everest Fuels
 
 1009 users online  

81LL Otterbach Farm Airport
Mendota, Illinois, USA

GOING TO MENDOTA?


FAA INFORMATION EFFECTIVE 03 NOVEMBER 2022

Location

FAA Identifier: 81LL
Lat/Long: 41-34-09.1180N 089-10-25.3130W
41-34.151967N 089-10.421883W
41.5691994,-89.1736981
(estimated)
Elevation: 840 ft. / 256 m (estimated)
Variation: 00E (1985)
From city: 2 miles NW of MENDOTA, IL
Time zone: UTC -6 (UTC -5 during Daylight Saving Time)
Zip code: 61342

Airport Operations

Airport use: Private use. Permission required prior to landing
Activation date: 05/1979
Control tower: no
ARTCC: CHICAGO CENTER
FSS: KANKAKEE FLIGHT SERVICE STATION
Attendance: UNATNDD
Segmented circle: no

Airport Communications

WX AWOS-3 at VYS (13 nm S): 120.025 (815-223-8442)
WX AWOS-3 at RPJ (20 nm N): 125.2 (815-562-2955)

Nearby radio navigation aids

VOR radial/distance  VOR name  Freq  Var
PLLr144/28.5POLO VOR/DME111.2003E
BDFr037/30.8BRADFORD VORTAC114.7000E
JOTr270/38.4JOLIET VOR/DME112.3002E

Airport Services

Runway Information

Runway NW/SE

Dimensions: 1600 x 70 ft. / 488 x 21 m
Surface: turf
RUNWAY NW  RUNWAY SE
Traffic pattern: leftleft

Airport Ownership and Management from official FAA records

Ownership: Privately-owned
Owner: DEAN L. OTTERBACH
RR 1
MENDOTA, IL 61342
Phone 815-538-7102
Manager: DEAN L. OTTERBACH
RR 1
MENDOTA, IL 61342
Phone 815-538-7102
KEN OTTERBACK 35461 N 2900TH RD MENDOTA, IL 61342 (815) 538-7102

Additional Remarks

OWNER DESIRES ARPT NOT BE CHARTED.
FOR CD CTC CHICAGO ARTCC AT 630-906-8921.

Instrument Procedures

There are no published instrument procedures at 81LL.

Some nearby airports with instrument procedures:

KVYS - Illinois Valley Regional Airport-Walter A Duncan Field (13 nm S)
KRPJ - Rochelle Municipal Airport/Koritz Field (20 nm N)
C73 - Dixon Municipal Airport-Charles R. Walgreen Field (20 nm NW)
KSQI - Whiteside County Airport/Jos H Bittorf Field (25 nm NW)
KDKB - De Kalb Taylor Municipal Airport (30 nm NE)
 
Loc | Ops | Rwys | IFR | FBO | Links
Com | Nav | Svcs | Stats | Notes
Area around 81LL (Otterbach Farm Airport)
 
Road maps at: MapQuest Bing Google
 
Aerial photo
No photo
 
Sectional chart

 
Airport distance calculator
Flying to Otterbach Farm Airport? Find the distance to fly.

From to 81LL

Sunrise and sunset
Times for 29-Nov-2022
 Local
(UTC-6)
 Zulu
(UTC)
Morning civil twilight06:3212:32
Sunrise07:0313:03
Sunset16:2722:27
Evening civil twilight16:5822:58

Current date and time
Zulu (UTC)  30-Nov-2022 01:30:11
Local (UTC-6)  29-Nov-2022 19:30:11
 
METAR
KVYS 
13nm S 
300110Z AUTO 27015G28KT 10SM SCT014 SCT024 OVC033 09/06 A2954 RMK AO2 T00860058
KRPJ 
19nm N 
300115Z AUTO 26017KT 10SM SCT031 BKN039 OVC055 07/06 A2950 RMK AO2 T00720063 TSNO
KSQI 
25nm NW 
300121Z AUTO 26017KT 10SM BKN012 BKN060 02/01 A2956 RMK AO2 FZRANO
TAF
KRFD 
38nm N 
292035Z 2921/3018 18015G25KT P6SM OVC020 TEMPO 2922/3001 5SM -SHRA OVC010 FM300100 28019G31KT P6SM OVC017 FM300800 28019G31KT P6SM BKN035
KDPA 
46nm NE 
292034Z 2921/3018 18020G33KT P6SM BKN025 TEMPO 3000/3002 25020G35KT 3SM SHRA BR FM300300 27019G31KT P6SM OVC017 FM301000 28019G31KT P6SM BKN035
NOTAMs
Click for the latest NOTAMs
NOTAMs are issued by the DoD/FAA and will open in a separate window not controlled by AirNav.

 

 
 

Would you like to see your business listed on this page?

 If your business provides an interesting product or service to pilots, flight crews, aircraft, or users of the Otterbach Farm Airport, you should consider listing it here.  To start the listing process, click on the button below
 
Add a business
 

Other Pages about Otterbach Farm Airport

Update a link
 
Copyright © AirNav, LLC. All rights reserved. Privacy Policy  Contact